createdAt,value
2022-12-03T00:00:54.837Z,18.17
2022-12-03T00:05:56.890Z,24.98
2022-12-03T00:10:58.878Z,23.55
2022-12-03T00:16:01.046Z,20.83
2022-12-03T00:21:03.130Z,23.60
2022-12-03T00:26:05.242Z,25.52
2022-12-03T00:31:07.329Z,23.67
2022-12-03T00:36:09.541Z,25.25
2022-12-03T00:41:12.057Z,23.33
2022-12-03T00:46:18.253Z,23.33
2022-12-03T00:51:23.003Z,26.23
2022-12-03T00:56:25.171Z,33.05
2022-12-03T01:01:27.263Z,22.50
2022-12-03T01:06:29.282Z,23.55
2022-12-03T01:11:41.471Z,22.02
2022-12-03T01:16:44.752Z,24.88
2022-12-03T01:21:49.808Z,18.90
2022-12-03T01:26:51.866Z,21.65
2022-12-03T01:32:12.573Z,22.95
2022-12-03T01:42:29.096Z,21.45
2022-12-03T01:47:36.804Z,19.42
2022-12-03T01:52:39.591Z,21.13
2022-12-03T01:57:47.834Z,21.27
2022-12-03T02:02:53.602Z,26.75
2022-12-03T02:07:56.496Z,29.63
2022-12-03T02:13:03.148Z,26.02
2022-12-03T02:18:05.538Z,27.45
2022-12-03T02:23:43.356Z,19.95
2022-12-03T02:28:45.351Z,20.50
2022-12-03T02:33:47.358Z,15.63
2022-12-03T02:38:50.831Z,19.15
2022-12-03T02:43:52.834Z,25.30
2022-12-03T02:48:54.927Z,21.15
2022-12-03T02:53:57.523Z,20.45
2022-12-03T02:59:03.320Z,14.80
2022-12-03T03:04:06.607Z,12.60
2022-12-03T03:09:08.608Z,21.42
2022-12-03T03:14:10.633Z,24.63
2022-12-03T03:19:12.687Z,21.88
2022-12-03T03:24:14.667Z,20.23
2022-12-03T03:29:17.365Z,20.25
2022-12-03T03:34:20.645Z,24.80
2022-12-03T03:39:22.689Z,20.80
2022-12-03T03:44:24.817Z,27.98
2022-12-03T03:49:27.631Z,19.30
2022-12-03T03:54:29.852Z,15.25
2022-12-03T03:59:32.302Z,18.60
2022-12-03T04:04:37.755Z,18.17
2022-12-03T04:09:39.865Z,22.95
2022-12-03T04:14:41.819Z,18.95
2022-12-03T04:19:43.778Z,13.32
2022-12-03T04:24:45.810Z,13.65
2022-12-03T04:29:47.842Z,22.48
2022-12-03T04:35:19.131Z,14.68
2022-12-03T04:40:39.965Z,23.05
2022-12-03T04:45:41.990Z,18.65
2022-12-03T04:50:44.112Z,16.80
2022-12-03T04:55:46.219Z,13.18
2022-12-03T05:00:48.301Z,23.67
2022-12-03T05:05:50.326Z,21.25
2022-12-03T05:10:52.392Z,16.80
2022-12-03T05:15:54.419Z,20.70
2022-12-03T05:20:56.477Z,22.27
2022-12-03T05:25:58.496Z,28.65
2022-12-03T05:31:00.499Z,26.05
2022-12-03T05:36:02.626Z,22.27
2022-12-03T05:41:25.132Z,25.85
2022-12-03T05:46:27.291Z,19.70
2022-12-03T05:51:30.250Z,18.20
2022-12-03T05:56:32.392Z,16.63
2022-12-03T06:01:34.651Z,21.73
2022-12-03T06:06:36.621Z,34.42
2022-12-03T06:11:40.068Z,16.35
2022-12-03T06:16:42.073Z,13.38
2022-12-03T06:21:44.282Z,28.58
2022-12-03T06:26:46.340Z,17.17
2022-12-03T06:31:49.330Z,24.83
2022-12-03T06:36:51.367Z,24.45
2022-12-03T06:41:53.475Z,23.52
2022-12-03T06:46:55.555Z,20.20
2022-12-03T06:51:57.551Z,27.58
2022-12-03T06:57:00.366Z,24.48
2022-12-03T07:02:02.408Z,27.38
2022-12-03T07:07:04.484Z,22.85
2022-12-03T07:12:07.656Z,25.77
2022-12-03T07:17:09.784Z,21.90
2022-12-03T07:22:12.188Z,23.58
2022-12-03T07:27:14.146Z,32.22
2022-12-03T07:32:16.194Z,20.75
2022-12-03T07:37:22.854Z,26.63
2022-12-03T07:42:25.568Z,16.13
2022-12-03T07:47:27.689Z,19.63
2022-12-03T07:52:30.132Z,24.35
2022-12-03T07:57:32.635Z,24.17
2022-12-03T08:02:34.729Z,19.85
2022-12-03T08:07:37.064Z,26.10
2022-12-03T08:12:45.803Z,23.63
2022-12-03T08:17:54.878Z,21.60
2022-12-03T08:22:57.612Z,19.90
2022-12-03T08:28:26.703Z,19.95
2022-12-03T08:33:39.090Z,22.75
2022-12-03T08:38:45.534Z,20.85
2022-12-03T08:43:47.797Z,22.80
2022-12-03T08:48:49.859Z,29.20
2022-12-03T08:54:03.507Z,25.02
2022-12-03T08:59:24.184Z,21.67
2022-12-03T09:04:36.180Z,27.53
2022-12-03T09:09:38.387Z,22.58
2022-12-03T09:14:40.352Z,27.98
2022-12-03T09:19:46.287Z,27.00
2022-12-03T09:24:48.607Z,25.67
2022-12-03T09:29:50.976Z,24.70
2022-12-03T09:34:55.197Z,25.35
2022-12-03T09:39:57.455Z,24.15
2022-12-03T09:44:59.776Z,23.50
2022-12-03T09:50:02.272Z,20.88
2022-12-03T09:55:13.593Z,16.85
2022-12-03T10:00:21.899Z,21.00
2022-12-03T10:05:24.340Z,16.13
2022-12-03T10:10:26.505Z,26.55
2022-12-03T10:15:33.195Z,20.63
2022-12-03T10:20:35.344Z,20.63
2022-12-03T10:25:51.566Z,24.67
2022-12-03T10:30:57.324Z,21.60
2022-12-03T10:36:21.720Z,24.60
2022-12-03T10:41:29.316Z,22.10
2022-12-03T10:46:31.384Z,22.15
2022-12-03T10:51:33.582Z,23.10
2022-12-03T10:56:36.153Z,18.73
2022-12-03T11:01:38.244Z,24.40
2022-12-03T11:06:40.353Z,30.35
2022-12-03T11:11:42.386Z,22.35
2022-12-03T11:16:47.121Z,19.88
2022-12-03T11:22:07.147Z,25.42
2022-12-03T11:27:09.142Z,31.00
2022-12-03T11:32:11.181Z,26.38
2022-12-03T11:37:21.752Z,30.77
2022-12-03T11:42:26.198Z,24.63
2022-12-03T11:47:29.173Z,28.30
2022-12-03T11:52:40.339Z,26.02
2022-12-03T11:57:43.493Z,28.95
2022-12-03T12:02:46.358Z,29.40
2022-12-03T12:07:49.489Z,29.63
2022-12-03T12:12:55.074Z,28.83
2022-12-03T12:17:57.460Z,29.48
2022-12-03T12:23:28.144Z,30.35
2022-12-03T12:28:30.124Z,27.73
2022-12-03T12:33:34.627Z,26.23
2022-12-03T12:38:36.719Z,30.13
2022-12-03T12:43:39.662Z,24.88
2022-12-03T12:48:41.664Z,28.85
2022-12-03T12:53:43.649Z,28.40
2022-12-03T12:58:46.062Z,23.10
2022-12-03T13:03:51.282Z,25.85
2022-12-03T13:08:54.449Z,22.98
2022-12-03T13:13:56.416Z,25.20
2022-12-03T13:18:59.960Z,28.67
2022-12-03T13:24:02.398Z,23.25
2022-12-03T13:29:14.752Z,21.65
2022-12-03T13:34:21.242Z,26.10
2022-12-03T13:39:28.980Z,27.45
2022-12-03T13:44:32.412Z,22.75
2022-12-03T13:49:34.907Z,16.83
2022-12-03T13:54:39.403Z,21.13
2022-12-03T13:59:41.514Z,20.48
2022-12-03T14:04:44.500Z,24.00
2022-12-03T14:09:46.621Z,25.70
2022-12-03T14:14:48.636Z,28.58
2022-12-03T14:19:50.734Z,28.70
2022-12-03T14:24:53.666Z,23.85
2022-12-03T14:29:56.035Z,26.30
2022-12-03T14:34:58.279Z,16.15
2022-12-03T14:40:00.317Z,19.65
2022-12-03T14:45:02.633Z,22.63
2022-12-03T14:50:06.052Z,31.48
2022-12-03T14:55:08.444Z,22.63
2022-12-03T15:00:12.779Z,35.53
2022-12-03T15:05:14.905Z,33.13
2022-12-03T15:10:16.989Z,30.02
2022-12-03T15:15:19.821Z,27.20
2022-12-03T15:20:21.966Z,33.35
2022-12-03T15:25:27.017Z,27.98
2022-12-03T15:30:29.583Z,17.10
2022-12-03T15:35:31.735Z,27.55
2022-12-03T15:40:35.476Z,25.67
2022-12-03T15:45:37.586Z,29.73
2022-12-03T15:50:40.368Z,27.77
2022-12-03T15:55:42.649Z,30.42
2022-12-03T16:00:44.701Z,27.52
2022-12-03T16:05:46.798Z,19.45
2022-12-03T16:10:49.863Z,24.45
2022-12-03T16:15:51.977Z,16.83
2022-12-03T16:20:54.136Z,31.48
2022-12-03T16:25:56.150Z,28.67
2022-12-03T16:30:58.213Z,29.67
2022-12-03T16:36:00.372Z,28.67
2022-12-03T16:41:02.500Z,25.58
2022-12-03T16:46:17.358Z,25.02
2022-12-03T16:51:19.787Z,19.48
2022-12-03T16:56:22.958Z,13.25
2022-12-03T17:01:25.102Z,10.45
2022-12-03T17:06:27.149Z,15.10
2022-12-03T17:11:29.382Z,14.65
2022-12-03T17:16:31.626Z,16.85
2022-12-03T17:21:35.230Z,11.05
2022-12-03T17:26:37.499Z,11.65
2022-12-03T17:31:42.256Z,11.77
2022-12-03T17:36:44.777Z,10.38
2022-12-03T17:41:46.814Z,8.55
2022-12-03T17:46:49.529Z,9.27
2022-12-03T17:51:51.673Z,14.70
2022-12-03T17:56:53.702Z,5.47
2022-12-03T18:01:55.762Z,11.27
2022-12-03T18:07:02.148Z,12.48
2022-12-03T18:12:04.748Z,10.27
2022-12-03T18:17:06.882Z,9.02
2022-12-03T18:22:09.284Z,10.93
2022-12-03T18:27:11.381Z,10.10
2022-12-03T18:32:27.809Z,9.82
2022-12-03T18:37:33.153Z,12.65
2022-12-03T18:42:35.208Z,13.35
2022-12-03T18:47:38.277Z,10.18
2022-12-03T18:52:40.583Z,12.73
2022-12-03T18:57:42.695Z,11.50
2022-12-03T19:03:02.291Z,7.97
2022-12-03T19:08:14.025Z,13.30
2022-12-03T19:13:16.208Z,10.27
2022-12-03T19:18:18.219Z,11.82
2022-12-03T19:23:20.528Z,11.82
2022-12-03T19:28:22.512Z,9.43
2022-12-03T19:33:28.572Z,13.15
2022-12-03T19:38:31.805Z,11.77
2022-12-03T19:43:36.601Z,14.80
2022-12-03T19:48:40.571Z,12.45
2022-12-03T19:53:43.243Z,9.13
2022-12-03T19:58:46.799Z,14.32
2022-12-03T20:03:51.127Z,11.63
2022-12-03T20:08:58.274Z,12.02
2022-12-03T20:14:07.704Z,14.50
2022-12-03T20:19:12.462Z,14.57
2022-12-03T20:24:16.497Z,13.55
2022-12-03T20:29:18.535Z,12.63
2022-12-03T20:34:20.575Z,16.92
2022-12-03T20:39:22.600Z,15.52
2022-12-03T20:44:24.568Z,14.73
2022-12-03T20:49:26.597Z,13.15
2022-12-03T20:54:28.565Z,11.32
2022-12-03T20:59:30.705Z,7.57
2022-12-03T21:04:33.792Z,16.45
2022-12-03T21:09:35.843Z,15.32
2022-12-03T21:14:37.859Z,14.70
2022-12-03T21:19:39.980Z,16.27
2022-12-03T21:24:42.973Z,15.13
2022-12-03T21:29:45.062Z,15.32
2022-12-03T21:34:47.080Z,12.20
2022-12-03T21:39:49.285Z,14.05
2022-12-03T21:44:51.485Z,16.90
2022-12-03T21:49:53.930Z,13.30
2022-12-03T21:54:56.115Z,16.33
2022-12-03T21:59:58.271Z,13.68
2022-12-03T22:05:00.303Z,16.80
2022-12-03T22:10:02.833Z,15.50
2022-12-03T22:15:05.908Z,15.45
2022-12-03T22:20:08.633Z,11.57
2022-12-03T22:25:10.722Z,16.63
2022-12-03T22:30:12.932Z,16.08
2022-12-03T22:35:15.027Z,15.88
2022-12-03T22:40:17.194Z,13.55
2022-12-03T22:45:19.286Z,21.00
2022-12-03T22:50:21.341Z,20.52
2022-12-03T22:55:23.508Z,11.63
2022-12-03T23:00:31.894Z,15.65
2022-12-03T23:05:37.065Z,19.75
2022-12-03T23:10:42.312Z,17.05
2022-12-03T23:15:46.513Z,16.92
2022-12-03T23:20:53.975Z,13.45
2022-12-03T23:26:02.039Z,17.33
2022-12-03T23:31:05.591Z,17.88
2022-12-03T23:36:08.060Z,13.48
2022-12-03T23:41:13.316Z,14.63
2022-12-03T23:46:19.512Z,16.27
2022-12-03T23:51:26.810Z,17.30
2022-12-03T23:56:30.779Z,17.35
